Orbital elements of BREEZE-M DEB
| Launched | 13 March 2008 |
| Flight ended | – |
| Launch site | Tyuratam Missile and Space Center, Kazakhstan (Also known as Baikonur Cosmodrome) |
| Owner | Commonwealth of Independent States (former USSR) |
| NORAD ID | 38572 |
| Date fetched |
Epoch osculation |
Inc. [°] |
Ecc. | RA asc node [hr] |
Arg Peri. [°] |
Mean anom [°] |
Mean motion [rev/day] |
Abs. mag |
| Date fetched |
Epoch osculation |
Inc. [°] |
Ecc. | RA asc node [hr] |
Arg Peri. [°] |
Mean anom [°] |
Mean motion [rev/day] |
Abs. mag |
| 2026 May 04 17:57 | 2026 Apr 28 03:33:37 | 48.4221 | 0.62866 | 8.0777 | 153.8918 | 260.2501 | 3.03162 | – |
| 2026 May 03 17:57 | 2026 Apr 28 03:33:37 | 48.4221 | 0.62866 | 8.0777 | 153.8918 | 260.2501 | 3.03162 | – |
| 2026 May 02 17:57 | 2026 Apr 28 03:33:37 | 48.4221 | 0.62866 | 8.0777 | 153.8918 | 260.2501 | 3.03162 | – |
| 2026 May 01 17:56 | 2026 Apr 28 03:33:37 | 48.4221 | 0.62866 | 8.0777 | 153.8918 | 260.2501 | 3.03162 | – |
| 2026 Apr 30 17:56 | 2026 Apr 28 03:33:37 | 48.4221 | 0.62866 | 8.0777 | 153.8918 | 260.2501 | 3.03162 | – |
| 2026 Apr 29 17:57 | 2026 Apr 19 13:52:12 | 48.4128 | 0.62899 | 8.2626 | 151.3924 | 260.2501 | 3.03162 | – |
| 2026 Apr 28 17:56 | 2026 Apr 19 13:52:12 | 48.4128 | 0.62899 | 8.2626 | 151.3924 | 260.2501 | 3.03162 | – |
| 2026 Apr 27 17:58 | 2026 Apr 19 13:52:12 | 48.4128 | 0.62899 | 8.2626 | 151.3924 | 260.2501 | 3.03162 | – |
| 2026 Apr 26 17:58 | 2026 Apr 19 13:52:12 | 48.4128 | 0.62899 | 8.2626 | 151.3924 | 260.2501 | 3.03162 | – |
| 2026 Apr 25 17:58 | 2026 Apr 19 13:52:12 | 48.4128 | 0.62899 | 8.2626 | 151.3924 | 260.2501 | 3.03162 | – |
| 2026 Apr 24 17:59 | 2026 Apr 19 13:52:12 | 48.4128 | 0.62899 | 8.2626 | 151.3924 | 260.2501 | 3.03162 | – |
| 2026 Apr 23 17:57 | 2026 Apr 19 05:57:31 | 48.4123 | 0.62899 | 8.2697 | 151.2961 | 260.2501 | 3.03162 | – |
| 2026 Apr 22 17:57 | 2026 Apr 19 05:57:31 | 48.4123 | 0.62899 | 8.2697 | 151.2961 | 260.2501 | 3.03162 | – |
| 2026 Apr 21 17:57 | 2026 Apr 19 05:57:31 | 48.4123 | 0.62899 | 8.2697 | 151.2961 | 260.2501 | 3.03162 | – |
| 2026 Apr 20 17:57 | 2026 Apr 19 05:57:31 | 48.4123 | 0.62899 | 8.2697 | 151.2961 | 260.2501 | 3.03162 | – |
| 2026 Apr 19 17:58 | 2026 Apr 19 05:57:31 | 48.4123 | 0.62899 | 8.2697 | 151.2961 | 260.2501 | 3.03162 | – |
| 2026 Apr 18 17:56 | 2026 Apr 10 08:21:13 | 48.3978 | 0.62932 | 8.4621 | 148.7015 | 260.2501 | 3.03162 | – |
| 2026 Apr 16 17:57 | 2026 Apr 10 08:21:13 | 48.3978 | 0.62932 | 8.4621 | 148.7015 | 260.2501 | 3.03162 | – |
| 2026 Apr 14 17:57 | 2026 Apr 10 08:21:13 | 48.3978 | 0.62932 | 8.4621 | 148.7015 | 260.2501 | 3.03162 | – |
| 2026 Apr 13 17:57 | 2026 Apr 10 08:21:13 | 48.3978 | 0.62932 | 8.4621 | 148.7015 | 260.2501 | 3.03162 | – |
| 2026 Apr 12 17:57 | 2026 Apr 07 17:03:39 | 48.3918 | 0.62943 | 8.5191 | 147.9315 | 260.2501 | 3.03162 | – |
| 2026 Apr 11 17:57 | 2026 Apr 07 17:03:39 | 48.3918 | 0.62943 | 8.5191 | 147.9315 | 260.2501 | 3.03162 | – |
| 2026 Apr 10 17:58 | 2026 Apr 07 17:03:39 | 48.3918 | 0.62943 | 8.5191 | 147.9315 | 260.2501 | 3.03162 | – |
| 2026 Apr 09 18:01 | 2026 Apr 07 17:03:39 | 48.3918 | 0.62943 | 8.5191 | 147.9315 | 260.2501 | 3.03162 | – |
| 2026 Apr 08 17:57 | 2026 Apr 07 17:03:39 | 48.3918 | 0.62943 | 8.5191 | 147.9315 | 260.2501 | 3.03162 | – |
| 2026 Apr 07 17:57 | 2026 Apr 01 18:38:45 | 48.3786 | 0.62965 | 8.6475 | 146.1970 | 260.2501 | 3.03162 | – |